»·PEaware :: N149CD KVNY-KLGB

N149CD :: KVNY-KLGB

FLIGHT INFORMATION

Flight Status: Arrived
Operator: Privately registered:
United States
More flights under this callsign
Pilot: Nathan E. (30132)
Aircraft: CESSNA 172 SKYHAWK
(C172)
More flights by this aircraft type
Origin: KVNY Van Nuys
United States
Destination: KLGB Long Beach
United States
More flights between these airports :: More routes between these airports
Route: ADAMM3 ADAMM V394 SLI
File this flight plan on PilotEdge
Remarks: BURP19
Altitude:
(Current/Filed)
5,000ft
Speed:
(Current/Filed)
110kts
Departed: 29-Sep-22 09:42 AM
Arrived: 29-Sep-22 10:22 AM
Distance/Time
Traveled:
29nm/0:40
Distance/Time
To Go:
Arrived

Flight Plot

Page will automatically refresh every two minutes.

Flight plan parsing failed; only flown route is shown


Map Options




Map Legend


Flown Route
Filed Route
Departure Airport
Arrival Airport
Navaid (VOR, NDB)
Fix

Horizontal Profiles

Position Reports

Time Latitude Longitude Heading Altitude Ground
Speed
29-Sep-22 09:27 34.209614 -118.491867 91 805ft 0kts
29-Sep-22 09:28 34.209614 -118.491867 91 805ft 0kts
29-Sep-22 09:29 34.209614 -118.491867 91 805ft 0kts
29-Sep-22 09:30 34.209614 -118.491867 91 805ft 0kts
29-Sep-22 09:31 34.209614 -118.491867 91 805ft 0kts
29-Sep-22 09:32 34.209614 -118.491867 91 805ft 0kts
29-Sep-22 09:33 34.209614 -118.491867 91 805ft 0kts
29-Sep-22 09:34 34.209614 -118.491867 91 805ft 0kts
29-Sep-22 09:35 34.209690 -118.491613 30 805ft 5kts
29-Sep-22 09:36 34.212487 -118.491793 354 805ft 13kts
29-Sep-22 09:37 34.216600 -118.492259 358 805ft 15kts
29-Sep-22 09:38 34.219033 -118.492202 98 805ft 0kts
29-Sep-22 09:39 34.219033 -118.492202 98 805ft 0kts
29-Sep-22 09:40 34.219022 -118.492169 118 805ft 2kts
29-Sep-22 09:41 34.215633 -118.490924 175 805ft 58kts
29-Sep-22 09:42 34.194349 -118.489073 175 1396ft 83kts
29-Sep-22 09:43 34.177719 -118.471084 124 2201ft 85kts
29-Sep-22 09:44 34.163999 -118.447432 124 2965ft 87kts
29-Sep-22 09:45 34.157896 -118.419898 91 3689ft 88kts
29-Sep-22 09:46 34.156692 -118.390093 91 4392ft 89kts
29-Sep-22 09:47 34.155424 -118.359662 91 4992ft 98kts
29-Sep-22 09:48 34.153872 -118.321486 91 5000ft 119kts
29-Sep-22 09:49 34.152555 -118.281569 91 4998ft 119kts
29-Sep-22 09:50 34.146364 -118.242052 108 4997ft 120kts
29-Sep-22 09:51 34.135219 -118.203832 110 4995ft 120kts
29-Sep-22 09:52 34.123842 -118.165792 111 4994ft 120kts
29-Sep-22 09:53 34.112481 -118.127842 111 4992ft 120kts
29-Sep-22 09:54 34.101185 -118.090113 112 4990ft 119kts
29-Sep-22 09:55 34.089764 -118.052717 112 4992ft 118kts
29-Sep-22 09:56 34.078243 -118.015187 112 4997ft 119kts
29-Sep-22 09:57 34.066695 -117.977632 111 5001ft 120kts
29-Sep-22 09:58 34.055049 -117.939811 111 5004ft 120kts
29-Sep-22 09:59 34.043327 -117.901790 110 5006ft 120kts
29-Sep-22 10:00 34.031623 -117.863874 110 5008ft 121kts
29-Sep-22 10:01 34.017666 -117.827652 152 5005ft 119kts
29-Sep-22 10:02 33.986476 -117.832099 201 5002ft 114kts
29-Sep-22 10:03 33.957180 -117.845815 203 4997ft 112kts
29-Sep-22 10:04 33.928473 -117.859684 202 5001ft 111kts
29-Sep-22 10:05 33.899941 -117.873465 203 4999ft 110kts
29-Sep-22 10:06 33.870067 -117.879577 172 4999ft 115kts
29-Sep-22 10:07 33.838040 -117.872462 171 4881ft 122kts
29-Sep-22 10:08 33.803732 -117.865212 171 4384ft 127kts
29-Sep-22 10:09 33.770422 -117.868725 209 3998ft 117kts
29-Sep-22 10:10 33.741523 -117.886287 207 3996ft 118kts
29-Sep-22 10:11 33.712156 -117.903530 207 3995ft 118kts
29-Sep-22 10:12 33.683252 -117.921867 233 3990ft 116kts
29-Sep-22 10:13 33.684190 -117.958994 287 3651ft 113kts
29-Sep-22 10:14 33.694034 -117.995191 289 3109ft 114kts
29-Sep-22 10:15 33.712995 -118.024946 315 2707ft 116kts
29-Sep-22 10:16 33.734921 -118.051316 315 2159ft 106kts
29-Sep-22 10:17 33.755576 -118.076222 315 1600ft 105kts
29-Sep-22 10:18 33.776200 -118.101108 315 1030ft 105kts
29-Sep-22 10:19 33.792304 -118.120556 314 578ft 62kts
29-Sep-22 10:20 33.804876 -118.135797 314 277ft 64kts
29-Sep-22 10:21 33.814904 -118.148036 286 36ft 11kts
29-Sep-22 10:22 33.814927 -118.149189 270 36ft 3kts
29-Sep-22 10:23 33.813724 -118.150987 179 38ft 10kts
29-Sep-22 10:24 33.812561 -118.152712 269 40ft 0kts

Navigation Log

Ident Type
Flight plan parsing failed, navigation log unavailable